Time;durP1;ratioP1;P1;durP2;ratioP2;P2;SDS_P1;SDS_P2;PMS_P1;PMS_P2;Temp;Humidity;BMP_temperature;BMP_pressure;BME280_temperature;BME280_humidity;BME280_pressure;Samples;Min_cycle;Max_cycle;Signal;HPM_P1;HPM_P2
2023/04/08 00:00:31;;;;;;;45.80;25.38;;;;;;;;;;4809073;29;20059;-82
2023/04/08 00:03:17;;;;;;;50.28;26.15;;;;;;;;;;4808719;29;20047;-81
2023/04/08 00:06:03;;;;;;;50.72;26.73;;;;;;;;;;4808638;29;20051;-82
2023/04/08 00:08:49;;;;;;;48.10;27.92;;;;;;;;;;4809415;29;20039;-81
2023/04/08 00:11:34;;;;;;;45.10;27.90;;;;;;;;;;4808616;29;20050;-84
2023/04/08 00:14:20;;;;;;;49.42;29.58;;;;;;;;;;4808779;29;20043;-81
2023/04/08 00:17:06;;;;;;;72.88;33.95;;;;;;;;;;4800906;29;20055;-82
2023/04/08 00:19:51;;;;;;;56.10;30.65;;;;;;;;;;4795335;29;20047;-81
2023/04/08 00:22:37;;;;;;;43.17;27.83;;;;;;;;;;4808650;29;20060;-81
2023/04/08 00:25:22;;;;;;;48.30;27.38;;;;;;;;;;4808403;29;20500;-79
2023/04/08 00:28:08;;;;;;;42.50;25.58;;;;;;;;;;4800839;29;20055;-81
2023/04/08 00:30:53;;;;;;;41.33;24.67;;;;;;;;;;4808326;29;20484;-81
2023/04/08 00:33:38;;;;;;;46.55;26.95;;;;;;;;;;4808511;29;20051;-83
2023/04/08 00:36:22;;;;;;;43.97;25.67;;;;;;;;;;4808923;29;20055;-81
2023/04/08 00:39:10;;;;;;;44.83;24.80;;;;;;;;;;4800607;29;20484;-82
2023/04/08 00:41:56;;;;;;;44.20;25.90;;;;;;;;;;4808248;29;20051;-82
2023/04/08 00:44:41;;;;;;;43.55;26.77;;;;;;;;;;4808110;29;20413;-81
2023/04/08 00:47:27;;;;;;;46.53;25.33;;;;;;;;;;4787774;29;20051;-84
2023/04/08 00:50:11;;;;;;;46.72;24.38;;;;;;;;;;4794637;29;20055;-81
2023/04/08 00:52:57;;;;;;;40.20;23.42;;;;;;;;;;4807958;29;20485;-82
2023/04/08 00:55:43;;;;;;;38.67;23.80;;;;;;;;;;4808124;29;20066;-81
2023/04/08 00:58:29;;;;;;;46.75;23.15;;;;;;;;;;4808046;29;20054;-81
2023/04/08 01:01:39;;;;;;;49.22;25.20;;;;;;;;;;4807870;29;20050;-82
2023/04/08 01:04:38;;;;;;;44.80;23.92;;;;;;;;;;4800411;29;20055;-81
2023/04/08 01:07:36;;;;;;;33.92;19.00;;;;;;;;;;4807349;29;20043;-82
2023/04/08 01:10:27;;;;;;;44.85;23.90;;;;;;;;;;4794120;29;20062;-83
2023/04/08 01:13:16;;;;;;;46.72;26.15;;;;;;;;;;4807823;29;20051;-81
2023/04/08 01:16:02;;;;;;;49.20;27.33;;;;;;;;;;4807616;29;20408;-80
2023/04/08 01:18:50;;;;;;;51.75;27.77;;;;;;;;;;4807978;29;20050;-81
2023/04/08 01:21:37;;;;;;;50.45;28.42;;;;;;;;;;4799779;29;20050;-82
2023/04/08 01:24:27;;;;;;;52.55;30.02;;;;;;;;;;4807509;29;20055;-82
2023/04/08 01:27:16;;;;;;;59.15;32.05;;;;;;;;;;4794076;29;20043;-82
2023/04/08 01:30:07;;;;;;;68.28;36.10;;;;;;;;;;4807033;29;20058;-81
2023/04/08 01:32:54;;;;;;;59.00;31.90;;;;;;;;;;4807837;29;20446;-82
2023/04/08 01:35:41;;;;;;;54.97;31.35;;;;;;;;;;4807339;29;20054;-82
2023/04/08 01:38:28;;;;;;;59.50;35.42;;;;;;;;;;4799802;29;20051;-81
2023/04/08 01:41:15;;;;;;;60.97;33.42;;;;;;;;;;4807061;29;20055;-82
2023/04/08 01:44:02;;;;;;;55.05;31.08;;;;;;;;;;4799462;29;20051;-83
2023/04/08 01:46:49;;;;;;;56.28;32.25;;;;;;;;;;4807372;29;20046;-82
2023/04/08 01:49:36;;;;;;;49.97;28.38;;;;;;;;;;4799133;29;20054;-83
2023/04/08 01:52:22;;;;;;;42.55;25.35;;;;;;;;;;4806776;29;20055;-82
2023/04/08 01:55:08;;;;;;;41.42;24.98;;;;;;;;;;4806829;29;20493;-83
2023/04/08 01:57:58;;;;;;;40.80;25.40;;;;;;;;;;4799615;29;20055;-81
2023/04/08 02:00:45;;;;;;;44.60;26.55;;;;;;;;;;4799183;29;20054;-82
2023/04/08 02:03:34;;;;;;;49.13;25.60;;;;;;;;;;4806752;29;20059;-82
2023/04/08 02:06:19;;;;;;;71.32;36.63;;;;;;;;;;4799008;29;20050;-82
2023/04/08 02:09:04;;;;;;;40.33;23.23;;;;;;;;;;4793344;29;20050;-80
2023/04/08 02:11:49;;;;;;;37.58;22.38;;;;;;;;;;4792372;29;20055;-83
2023/04/08 02:14:34;;;;;;;35.83;20.63;;;;;;;;;;4799099;29;20046;-82
2023/04/08 02:17:34;;;;;;;49.45;26.52;;;;;;;;;;4786323;29;20059;-82
2023/04/08 02:20:33;;;;;;;56.97;29.48;;;;;;;;;;4799212;29;20050;-82
2023/04/08 02:23:24;;;;;;;58.17;28.60;;;;;;;;;;4793123;29;20055;-82
2023/04/08 02:26:13;;;;;;;72.93;38.08;;;;;;;;;;4792886;29;20047;-81
2023/04/08 02:29:01;;;;;;;135.05;66.20;;;;;;;;;;4799366;29;20422;-81
2023/04/08 02:31:48;;;;;;;94.95;45.22;;;;;;;;;;4799117;29;20489;-81
2023/04/08 02:34:35;;;;;;;100.82;48.45;;;;;;;;;;4799009;29;20054;-81
2023/04/08 02:37:21;;;;;;;61.85;35.03;;;;;;;;;;4799073;29;20055;-80
2023/04/08 02:40:26;;;;;;;55.75;32.55;;;;;;;;;;4798927;29;20046;-82
2023/04/08 02:43:11;;;;;;;48.80;29.15;;;;;;;;;;4806761;29;20377;-81
2023/04/08 02:46:02;;;;;;;49.88;28.50;;;;;;;;;;4798910;29;20050;-82
2023/04/08 02:48:47;;;;;;;47.33;28.73;;;;;;;;;;4786161;29;20046;-81
2023/04/08 02:51:33;;;;;;;48.85;28.08;;;;;;;;;;4786178;29;20058;-79
2023/04/08 02:54:19;;;;;;;42.03;25.88;;;;;;;;;;4792955;29;20051;-81
2023/04/08 02:57:04;;;;;;;42.53;27.15;;;;;;;;;;4798695;29;20412;-79
2023/04/08 02:59:50;;;;;;;48.00;28.15;;;;;;;;;;4806393;29;20047;-79
2023/04/08 03:02:36;;;;;;;42.70;27.95;;;;;;;;;;4806656;29;20054;-80
2023/04/08 03:05:22;;;;;;;52.25;28.50;;;;;;;;;;4792745;29;20051;-81
2023/04/08 03:08:07;;;;;;;50.72;29.23;;;;;;;;;;4798835;29;20397;-82
2023/04/08 03:10:52;;;;;;;47.92;28.05;;;;;;;;;;4806851;29;20051;-80
2023/04/08 03:13:38;;;;;;;45.08;26.25;;;;;;;;;;4806107;29;20051;-81
2023/04/08 03:16:23;;;;;;;46.70;27.23;;;;;;;;;;4806247;29;20055;-85
2023/04/08 03:19:09;;;;;;;48.25;26.45;;;;;;;;;;4798646;29;20416;-82
2023/04/08 03:21:54;;;;;;;37.45;21.92;;;;;;;;;;4806548;29;20497;-83
2023/04/08 03:24:39;;;;;;;49.45;28.85;;;;;;;;;;4796059;29;20054;-82
2023/04/08 03:27:25;;;;;;;43.38;23.98;;;;;;;;;;4809334;29;20055;-82
2023/04/08 03:30:10;;;;;;;64.38;29.83;;;;;;;;;;4799176;29;20059;-82
2023/04/08 03:32:56;;;;;;;50.42;29.20;;;;;;;;;;4796179;29;20051;-83
2023/04/08 03:35:42;;;;;;;49.10;30.27;;;;;;;;;;4809391;29;20055;-81
2023/04/08 03:38:27;;;;;;;50.60;29.92;;;;;;;;;;4795861;29;20050;-81
2023/04/08 03:41:12;;;;;;;51.88;29.58;;;;;;;;;;4801563;29;20054;-82
2023/04/08 03:43:57;;;;;;;51.70;31.23;;;;;;;;;;4809546;29;20062;-84
2023/04/08 03:46:43;;;;;;;55.42;31.45;;;;;;;;;;4809050;29;20058;-82
2023/04/08 03:49:28;;;;;;;68.70;40.28;;;;;;;;;;4809489;29;20398;-80
2023/04/08 03:52:14;;;;;;;56.40;34.08;;;;;;;;;;4808993;29;20437;-80
2023/04/08 03:55:00;;;;;;;50.38;32.85;;;;;;;;;;4809016;29;20054;-81
2023/04/08 03:57:45;;;;;;;49.90;30.15;;;;;;;;;;4795455;29;20059;-81
2023/04/08 04:00:30;;;;;;;49.85;29.58;;;;;;;;;;4809174;29;20050;-81
2023/04/08 04:03:15;;;;;;;46.95;28.65;;;;;;;;;;4808924;29;20493;-81
2023/04/08 04:06:00;;;;;;;47.75;29.42;;;;;;;;;;4808841;29;20046;-82
2023/04/08 04:08:46;;;;;;;48.35;28.65;;;;;;;;;;4808595;29;20039;-80
2023/04/08 04:11:33;;;;;;;47.80;30.08;;;;;;;;;;4801143;29;20437;-81
2023/04/08 04:14:19;;;;;;;93.18;44.75;;;;;;;;;;4808872;29;20055;-80
2023/04/08 04:17:05;;;;;;;116.80;53.22;;;;;;;;;;4808814;29;20047;-80
2023/04/08 04:19:51;;;;;;;71.70;36.25;;;;;;;;;;4800949;29;20055;-81
2023/04/08 04:22:36;;;;;;;63.08;33.67;;;;;;;;;;4794750;29;20409;-82
2023/04/08 04:25:22;;;;;;;51.15;33.75;;;;;;;;;;4801063;29;20062;-83
2023/04/08 04:28:08;;;;;;;46.00;28.38;;;;;;;;;;4808712;29;20047;-83
2023/04/08 04:30:54;;;;;;;52.80;32.08;;;;;;;;;;4808928;29;20058;-82
2023/04/08 04:33:39;;;;;;;53.67;30.85;;;;;;;;;;4787705;29;20054;-83
2023/04/08 04:36:23;;;;;;;52.65;32.97;;;;;;;;;;4808296;29;20058;-82
2023/04/08 04:39:09;;;;;;;71.25;40.20;;;;;;;;;;4808299;29;20489;-81
2023/04/08 04:41:55;;;;;;;68.13;37.70;;;;;;;;;;4808808;29;20051;-82
2023/04/08 04:44:40;;;;;;;66.05;36.88;;;;;;;;;;4808690;29;20046;-83
2023/04/08 04:47:25;;;;;;;61.78;35.85;;;;;;;;;;4794420;29;20051;-82
2023/04/08 04:50:11;;;;;;;56.95;34.63;;;;;;;;;;4807996;29;20485;-83
2023/04/08 04:52:56;;;;;;;57.88;35.65;;;;;;;;;;4808074;29;20192;-83
2023/04/08 04:55:41;;;;;;;55.33;34.30;;;;;;;;;;4807003;29;20050;-82
2023/04/08 04:58:28;;;;;;;55.92;34.20;;;;;;;;;;4792674;29;20059;-82
2023/04/08 05:01:12;;;;;;;51.25;34.22;;;;;;;;;;4812036;29;20042;-82
2023/04/08 05:03:58;;;;;;;56.30;34.83;;;;;;;;;;4825659;29;20054;-81
2023/04/08 05:06:44;;;;;;;57.42;35.15;;;;;;;;;;4825831;29;20058;-82
2023/04/08 05:09:30;;;;;;;58.83;35.28;;;;;;;;;;4826554;29;20050;-81
2023/04/08 05:12:15;;;;;;;65.10;38.38;;;;;;;;;;4825915;29;20054;-81
2023/04/08 05:15:01;;;;;;;62.90;38.58;;;;;;;;;;4816373;29;20058;-82
2023/04/08 05:17:46;;;;;;;63.85;36.17;;;;;;;;;;4803005;29;20054;-81
2023/04/08 05:20:32;;;;;;;67.45;38.15;;;;;;;;;;4789612;30;20059;-82
2023/04/08 05:23:17;;;;;;;57.88;34.15;;;;;;;;;;4804474;29;20051;-80
2023/04/08 05:26:06;;;;;;;51.92;33.05;;;;;;;;;;4795098;29;20038;-81
2023/04/08 05:28:52;;;;;;;46.83;30.52;;;;;;;;;;4823541;29;20046;-81
2023/04/08 05:31:37;;;;;;;60.55;36.08;;;;;;;;;;4825670;29;20489;-81
2023/04/08 05:34:23;;;;;;;47.53;30.10;;;;;;;;;;4825374;29;20050;-82
2023/04/08 05:37:08;;;;;;;47.65;28.48;;;;;;;;;;4825609;29;20058;-81
2023/04/08 05:39:53;;;;;;;51.58;29.17;;;;;;;;;;4825476;29;20046;-82
2023/04/08 05:42:41;;;;;;;53.78;32.13;;;;;;;;;;4825642;29;20043;-81
2023/04/08 05:45:29;;;;;;;51.42;31.08;;;;;;;;;;4825356;29;20493;-81
2023/04/08 05:48:16;;;;;;;49.30;29.40;;;;;;;;;;4816255;29;20051;-82
2023/04/08 05:51:02;;;;;;;51.72;30.77;;;;;;;;;;4811524;29;20042;-83
2023/04/08 05:53:47;;;;;;;58.72;34.67;;;;;;;;;;4788917;30;20051;-82
2023/04/08 05:56:33;;;;;;;56.75;33.55;;;;;;;;;;4789210;30;20059;-84
2023/04/08 05:59:19;;;;;;;48.08;29.15;;;;;;;;;;4787609;30;20055;-84
2023/04/08 06:02:05;;;;;;;60.17;31.42;;;;;;;;;;4789039;30;20067;-84
2023/04/08 06:04:50;;;;;;;47.67;29.27;;;;;;;;;;4793933;29;20051;-84
2023/04/08 06:07:36;;;;;;;47.90;28.45;;;;;;;;;;4822883;29;20050;-83
2023/04/08 06:10:22;;;;;;;51.30;28.75;;;;;;;;;;4811492;29;20046;-83
2023/04/08 06:13:07;;;;;;;49.50;28.13;;;;;;;;;;4825020;29;20396;-83
2023/04/08 06:15:52;;;;;;;49.53;29.27;;;;;;;;;;4825088;29;20058;-84
2023/04/08 06:18:37;;;;;;;50.97;31.15;;;;;;;;;;4804621;29;20058;-83
2023/04/08 06:21:22;;;;;;;47.13;29.23;;;;;;;;;;4811286;29;20121;-83
2023/04/08 06:24:07;;;;;;;48.22;29.15;;;;;;;;;;4817414;29;20059;-83
2023/04/08 06:26:53;;;;;;;49.78;31.20;;;;;;;;;;4824738;29;20051;-84
2023/04/08 06:29:38;;;;;;;62.33;32.78;;;;;;;;;;4824995;29;20050;-84
2023/04/08 06:32:24;;;;;;;52.17;31.17;;;;;;;;;;4822512;29;20058;-83
2023/04/08 06:35:10;;;;;;;54.95;32.28;;;;;;;;;;4816688;29;20050;-85
2023/04/08 06:37:55;;;;;;;52.95;31.92;;;;;;;;;;4800922;29;20047;-85
2023/04/08 06:40:40;;;;;;;50.78;29.77;;;;;;;;;;4803939;29;20409;-84
2023/04/08 06:43:25;;;;;;;41.17;24.33;;;;;;;;;;4791662;29;20501;-83
2023/04/08 06:46:10;;;;;;;48.53;31.27;;;;;;;;;;4789314;29;20084;-84
2023/04/08 06:48:55;;;;;;;54.75;30.58;;;;;;;;;;4792325;29;20038;-83
2023/04/08 06:51:40;;;;;;;37.80;24.40;;;;;;;;;;4824899;29;20050;-82
2023/04/08 06:54:26;;;;;;;44.72;29.42;;;;;;;;;;4824589;29;20050;-83
2023/04/08 06:57:12;;;;;;;54.65;32.00;;;;;;;;;;4819334;29;20489;-84
2023/04/08 06:59:59;;;;;;;43.10;28.25;;;;;;;;;;4790761;30;20409;-85
2023/04/08 07:02:47;;;;;;;42.67;28.38;;;;;;;;;;4798976;29;20051;-85
2023/04/08 07:05:37;;;;;;;39.70;25.52;;;;;;;;;;4796825;29;20044;-84
2023/04/08 07:08:23;;;;;;;50.83;29.48;;;;;;;;;;4797551;29;20051;-87
2023/04/08 07:11:11;;;;;;;48.95;29.88;;;;;;;;;;4771310;29;20055;-88
2023/04/08 07:13:59;;;;;;;54.58;32.70;;;;;;;;;;4784335;29;20055;-85
2023/04/08 07:16:44;;;;;;;68.57;38.85;;;;;;;;;;4784107;29;20055;-85
2023/04/08 07:19:30;;;;;;;54.15;32.35;;;;;;;;;;4783867;29;20047;-85
2023/04/08 07:22:16;;;;;;;53.40;35.22;;;;;;;;;;4790633;30;20043;-85
2023/04/08 07:25:01;;;;;;;59.33;36.10;;;;;;;;;;4777847;30;20055;-85
2023/04/08 07:27:47;;;;;;;43.72;26.88;;;;;;;;;;4783474;29;20047;-84
2023/04/08 07:30:32;;;;;;;46.47;28.02;;;;;;;;;;4797115;29;20088;-86
2023/04/08 07:33:18;;;;;;;46.28;28.17;;;;;;;;;;4796586;29;20039;-86
2023/04/08 07:36:04;;;;;;;88.43;49.55;;;;;;;;;;4807297;29;20046;-85
2023/04/08 07:38:51;;;;;;;28.10;17.40;;;;;;;;;;4801064;29;20401;-85
2023/04/08 07:41:38;;;;;;;39.80;21.48;;;;;;;;;;4805727;29;20055;-84
2023/04/08 07:44:23;;;;;;;47.42;30.58;;;;;;;;;;4796253;29;20052;-85
2023/04/08 07:47:09;;;;;;;52.30;31.40;;;;;;;;;;4795927;29;20409;-85
2023/04/08 07:49:54;;;;;;;57.65;32.00;;;;;;;;;;4823406;29;20049;-85
2023/04/08 07:52:40;;;;;;;48.53;30.13;;;;;;;;;;4791918;29;20407;-86
2023/04/08 07:55:26;;;;;;;49.97;28.58;;;;;;;;;;4827074;29;20046;-86
2023/04/08 07:58:11;;;;;;;47.78;31.17;;;;;;;;;;4806470;29;20051;-84
2023/04/08 08:00:57;;;;;;;61.28;32.70;;;;;;;;;;4817618;29;20050;-85
2023/04/08 08:03:42;;;;;;;50.60;30.10;;;;;;;;;;4826858;29;20054;-84
2023/04/08 08:06:28;;;;;;;48.28;25.70;;;;;;;;;;4801211;29;20054;-83
2023/04/08 08:09:13;;;;;;;53.00;29.95;;;;;;;;;;4793460;29;20047;-84
2023/04/08 08:11:58;;;;;;;56.30;31.33;;;;;;;;;;4794928;29;20054;-84
2023/04/08 08:14:49;;;;;;;35.97;18.13;;;;;;;;;;4801004;29;20050;-84
2023/04/08 08:17:34;;;;;;;45.13;28.55;;;;;;;;;;4801036;29;20051;-84
2023/04/08 08:20:20;;;;;;;51.45;29.30;;;;;;;;;;4800552;29;20070;-84
2023/04/08 08:23:04;;;;;;;57.92;31.65;;;;;;;;;;4800906;29;20062;-84
2023/04/08 08:25:58;;;;;;;49.55;30.80;;;;;;;;;;4795018;29;20050;-85
2023/04/08 08:28:44;;;;;;;58.55;32.50;;;;;;;;;;4806758;29;20042;-84
2023/04/08 08:31:29;;;;;;;49.50;29.85;;;;;;;;;;4776541;29;20051;-84
2023/04/08 08:34:15;;;;;;;57.63;28.50;;;;;;;;;;4789732;30;20051;-84
2023/04/08 08:37:00;;;;;;;51.50;28.58;;;;;;;;;;4790374;30;20051;-82
2023/04/08 08:39:46;;;;;;;52.75;31.52;;;;;;;;;;4790317;30;20047;-83
2023/04/08 08:42:31;;;;;;;50.17;29.70;;;;;;;;;;4782953;29;20055;-82
2023/04/08 08:45:19;;;;;;;53.80;30.58;;;;;;;;;;4770094;29;20059;-82
2023/04/08 08:48:05;;;;;;;47.70;28.85;;;;;;;;;;4790041;30;20055;-81
2023/04/08 08:50:50;;;;;;;47.65;28.58;;;;;;;;;;4775475;30;20039;-82
2023/04/08 08:53:36;;;;;;;46.42;27.65;;;;;;;;;;4790222;30;20051;-81
2023/04/08 08:56:21;;;;;;;41.80;23.48;;;;;;;;;;4776499;30;20055;-82
2023/04/08 08:59:07;;;;;;;37.63;25.67;;;;;;;;;;4782188;29;20055;-83
2023/04/08 09:01:52;;;;;;;25.40;16.17;;;;;;;;;;4782214;29;20055;-82
2023/04/08 09:04:38;;;;;;;20.85;13.55;;;;;;;;;;4790110;30;20055;-81
2023/04/08 09:07:25;;;;;;;16.33;11.05;;;;;;;;;;4776084;30;20047;-83
2023/04/08 09:10:10;;;;;;;22.70;13.90;;;;;;;;;;4789630;30;20051;-81
2023/04/08 09:12:56;;;;;;;18.65;12.02;;;;;;;;;;4775759;30;20059;-82
2023/04/08 09:16:04;;;;;;;16.95;10.70;;;;;;;;;;4771963;30;20406;-80
2023/04/08 09:18:49;;;;;;;19.63;13.73;;;;;;;;;;4771494;30;20056;-81
2023/04/08 09:21:35;;;;;;;19.15;11.85;;;;;;;;;;4771313;30;20414;-81
2023/04/08 09:24:30;;;;;;;19.42;11.43;;;;;;;;;;4776383;30;20056;-80
2023/04/08 09:27:16;;;;;;;18.77;12.35;;;;;;;;;;4771150;30;20052;-82
2023/04/08 09:30:14;;;;;;;20.38;13.30;;;;;;;;;;4778287;30;20051;-81
2023/04/08 09:33:00;;;;;;;96.65;47.55;;;;;;;;;;4789345;30;20051;-81
2023/04/08 09:35:45;;;;;;;23.85;14.52;;;;;;;;;;4789215;30;20055;-81
2023/04/08 09:38:45;;;;;;;21.38;14.35;;;;;;;;;;4789237;30;20063;-83
2023/04/08 09:41:35;;;;;;;31.05;18.13;;;;;;;;;;4789099;30;20051;-82
2023/04/08 09:44:20;;;;;;;18.40;13.43;;;;;;;;;;4793922;29;20063;-82
2023/04/08 09:47:12;;;;;;;19.20;13.60;;;;;;;;;;4793221;29;20055;-82
2023/04/08 09:50:04;;;;;;;19.58;13.30;;;;;;;;;;4817199;29;20042;-82
2023/04/08 09:52:55;;;;;;;31.00;20.48;;;;;;;;;;4819181;29;20058;-81
2023/04/08 09:55:43;;;;;;;23.08;16.92;;;;;;;;;;4825196;29;20038;-82
2023/04/08 09:58:36;;;;;;;17.25;13.52;;;;;;;;;;4825215;29;20054;-82
2023/04/08 10:01:29;;;;;;;21.05;13.27;;;;;;;;;;4817688;29;20051;-81
2023/04/08 10:04:18;;;;;;;23.30;14.45;;;;;;;;;;4807055;29;20067;-82
2023/04/08 10:07:05;;;;;;;26.58;18.88;;;;;;;;;;4812371;29;20054;-83
2023/04/08 10:09:51;;;;;;;33.22;20.95;;;;;;;;;;4816958;29;20058;-82
2023/04/08 10:12:36;;;;;;;29.42;19.13;;;;;;;;;;4802545;29;20051;-82
2023/04/08 10:15:24;;;;;;;29.80;19.40;;;;;;;;;;4791893;29;20054;-83
2023/04/08 10:18:10;;;;;;;32.35;20.08;;;;;;;;;;4797726;29;20058;-82
2023/04/08 10:20:56;;;;;;;24.58;17.02;;;;;;;;;;4806572;29;20042;-82
2023/04/08 10:24:05;;;;;;;75.47;43.50;;;;;;;;;;4786499;29;20469;-84
2023/04/08 10:26:50;;;;;;;18.90;12.98;;;;;;;;;;4806441;29;20059;-81
2023/04/08 10:29:35;;;;;;;20.98;12.23;;;;;;;;;;4797921;29;20067;-83
2023/04/08 10:32:28;;;;;;;31.42;19.10;;;;;;;;;;4798321;29;20055;-83
2023/04/08 10:35:13;;;;;;;21.77;14.40;;;;;;;;;;4793292;29;20498;-81
2023/04/08 10:37:58;;;;;;;17.63;12.23;;;;;;;;;;4806674;29;20043;-83
2023/04/08 10:40:44;;;;;;;22.35;16.10;;;;;;;;;;4787096;29;20051;-83
2023/04/08 10:43:33;;;;;;;14.60;9.90;;;;;;;;;;4791820;29;20054;-83
2023/04/08 10:46:20;;;;;;;15.32;9.80;;;;;;;;;;4798820;29;20417;-84
2023/04/08 10:49:05;;;;;;;15.65;10.07;;;;;;;;;;4805525;29;20062;-83
2023/04/08 10:51:52;;;;;;;15.38;10.10;;;;;;;;;;4792586;29;20046;-83
2023/04/08 10:54:37;;;;;;;21.58;13.70;;;;;;;;;;4792783;29;20039;-84
2023/04/08 10:57:23;;;;;;;16.05;11.27;;;;;;;;;;4806380;29;20059;-82
2023/04/08 11:00:10;;;;;;;32.95;14.68;;;;;;;;;;4811551;29;20055;-81
2023/04/08 11:02:59;;;;;;;14.73;8.38;;;;;;;;;;4811443;29;20059;-81
2023/04/08 11:05:45;;;;;;;14.93;8.40;;;;;;;;;;4804655;29;20058;-81
2023/04/08 11:08:32;;;;;;;13.57;8.93;;;;;;;;;;4812225;29;20055;-82
2023/04/08 11:11:18;;;;;;;116.88;31.85;;;;;;;;;;4791799;29;20055;-82
2023/04/08 11:14:04;;;;;;;23.30;10.82;;;;;;;;;;4798003;29;20382;-81
2023/04/08 11:16:50;;;;;;;17.70;9.77;;;;;;;;;;4812100;29;20047;-81
2023/04/08 11:19:36;;;;;;;15.05;9.05;;;;;;;;;;4798292;29;20050;-81
2023/04/08 11:22:22;;;;;;;14.43;8.15;;;;;;;;;;4806028;29;20055;-82
2023/04/08 11:25:09;;;;;;;13.65;8.25;;;;;;;;;;4805869;29;20054;-82
2023/04/08 11:27:54;;;;;;;12.15;7.07;;;;;;;;;;4806300;29;20477;-84
2023/04/08 11:30:40;;;;;;;10.95;7.40;;;;;;;;;;4806948;29;20058;-82
2023/04/08 11:33:28;;;;;;;10.98;7.63;;;;;;;;;;4798155;29;20413;-82
2023/04/08 11:36:16;;;;;;;44.65;22.58;;;;;;;;;;4798724;29;20059;-83
2023/04/08 11:39:06;;;;;;;10.18;7.28;;;;;;;;;;4805669;29;20051;-81
2023/04/08 11:41:50;;;;;;;14.48;9.93;;;;;;;;;;4798303;29;20047;-82
2023/04/08 11:44:35;;;;;;;11.00;7.97;;;;;;;;;;4808043;29;20055;-85
2023/04/08 11:47:21;;;;;;;8.75;6.15;;;;;;;;;;4801348;29;20489;-83
2023/04/08 11:50:07;;;;;;;14.07;5.63;;;;;;;;;;4809286;29;20055;-83
2023/04/08 11:52:52;;;;;;;10.20;4.75;;;;;;;;;;4808883;29;20046;-83
2023/04/08 11:55:38;;;;;;;8.48;6.05;;;;;;;;;;4801474;29;20059;-81
2023/04/08 11:58:23;;;;;;;11.05;6.50;;;;;;;;;;4801382;29;20062;-84
2023/04/08 12:01:08;;;;;;;9.10;6.60;;;;;;;;;;4808938;29;20051;-82
2023/04/08 12:03:57;;;;;;;12.18;7.30;;;;;;;;;;4808650;29;20051;-80
2023/04/08 12:06:45;;;;;;;8.85;6.30;;;;;;;;;;4809436;29;20397;-82
2023/04/08 12:09:30;;;;;;;15.60;8.35;;;;;;;;;;4808802;29;20051;-83
2023/04/08 12:12:16;;;;;;;10.38;7.50;;;;;;;;;;4808661;29;20063;-83
2023/04/08 12:15:02;;;;;;;9.25;6.90;;;;;;;;;;4808574;29;20489;-82
2023/04/08 12:17:47;;;;;;;11.23;5.80;;;;;;;;;;4808651;29;20051;-82
2023/04/08 12:20:33;;;;;;;13.30;8.23;;;;;;;;;;4808885;29;20051;-81
2023/04/08 12:23:18;;;;;;;13.80;8.13;;;;;;;;;;4808445;29;20050;-82
2023/04/08 12:26:04;;;;;;;9.30;6.55;;;;;;;;;;4801065;29;20050;-82
2023/04/08 12:28:49;;;;;;;11.88;7.38;;;;;;;;;;4800486;29;20054;-83
2023/04/08 12:31:35;;;;;;;11.75;6.80;;;;;;;;;;4808881;29;20055;-82
2023/04/08 12:34:21;;;;;;;10.75;6.57;;;;;;;;;;4808569;29;20437;-82
2023/04/08 12:37:06;;;;;;;10.85;7.15;;;;;;;;;;4807278;29;20051;-82
2023/04/08 12:39:51;;;;;;;12.32;8.32;;;;;;;;;;4808313;29;20055;-81
2023/04/08 12:42:36;;;;;;;12.98;7.97;;;;;;;;;;4808113;29;20051;-82
2023/04/08 12:45:22;;;;;;;10.20;6.72;;;;;;;;;;4807270;29;20058;-82
2023/04/08 12:48:08;;;;;;;11.32;8.30;;;;;;;;;;4808378;29;20055;-82
2023/04/08 12:50:53;;;;;;;10.80;6.70;;;;;;;;;;4801164;29;20498;-84
2023/04/08 12:53:38;;;;;;;13.45;7.15;;;;;;;;;;4807937;29;20054;-83
2023/04/08 12:56:23;;;;;;;10.45;7.45;;;;;;;;;;4793713;29;20430;-79
2023/04/08 12:59:08;;;;;;;15.85;8.52;;;;;;;;;;4798165;29;20051;-80
2023/04/08 13:01:54;;;;;;;10.40;7.20;;;;;;;;;;4792378;29;20051;-82
2023/04/08 13:04:39;;;;;;;12.45;7.25;;;;;;;;;;4810322;29;20051;-81
2023/04/08 13:07:24;;;;;;;11.82;7.68;;;;;;;;;;4793521;29;20047;-80
2023/04/08 13:10:10;;;;;;;12.70;7.93;;;;;;;;;;4796054;29;20051;-79
2023/04/08 13:12:55;;;;;;;13.98;8.35;;;;;;;;;;4794261;29;20059;-82
2023/04/08 13:15:40;;;;;;;10.02;6.57;;;;;;;;;;4792300;29;20405;-81
2023/04/08 13:18:26;;;;;;;15.35;7.75;;;;;;;;;;4788674;30;20063;-82
2023/04/08 13:21:11;;;;;;;31.80;12.60;;;;;;;;;;4781434;29;20055;-80
2023/04/08 13:23:56;;;;;;;17.45;7.00;;;;;;;;;;4786257;29;20050;-79
2023/04/08 13:26:41;;;;;;;14.75;9.52;;;;;;;;;;4825403;29;20054;-84
2023/04/08 13:29:27;;;;;;;15.38;10.20;;;;;;;;;;4823733;29;20062;-83
2023/04/08 13:32:12;;;;;;;10.55;7.22;;;;;;;;;;4825245;29;20050;-79
2023/04/08 13:34:58;;;;;;;11.68;7.82;;;;;;;;;;4822016;29;20054;-79
2023/04/08 13:37:43;;;;;;;12.43;8.60;;;;;;;;;;4789550;30;20047;-83
2023/04/08 13:40:29;;;;;;;12.23;7.53;;;;;;;;;;4801841;29;20054;-81
2023/04/08 13:43:15;;;;;;;14.98;7.78;;;;;;;;;;4823668;29;20046;-79
2023/04/08 13:46:00;;;;;;;12.25;8.40;;;;;;;;;;4817085;29;20405;-82
2023/04/08 13:48:45;;;;;;;9.48;7.07;;;;;;;;;;4812682;29;20054;-80
2023/04/08 13:51:31;;;;;;;10.52;7.10;;;;;;;;;;4823927;29;20400;-80
2023/04/08 13:54:16;;;;;;;9.30;7.00;;;;;;;;;;4824971;29;20066;-82
2023/04/08 13:57:02;;;;;;;17.13;7.15;;;;;;;;;;4822643;29;20501;-82
2023/04/08 13:59:48;;;;;;;24.35;11.30;;;;;;;;;;4825048;29;20063;-79
2023/04/08 14:02:33;;;;;;;13.13;6.50;;;;;;;;;;4812687;29;20046;-84
2023/04/08 14:05:19;;;;;;;10.63;6.95;;;;;;;;;;4804971;29;20039;-81
2023/04/08 14:08:04;;;;;;;13.52;6.63;;;;;;;;;;4796383;29;20055;-80
2023/04/08 14:10:51;;;;;;;10.02;6.60;;;;;;;;;;4800932;29;20047;-82
2023/04/08 14:13:35;;;;;;;14.32;6.82;;;;;;;;;;4791782;29;20059;-82
2023/04/08 14:16:21;;;;;;;14.02;7.43;;;;;;;;;;4788540;30;20075;-81
2023/04/08 14:19:06;;;;;;;11.32;6.63;;;;;;;;;;4824156;29;20062;-82
2023/04/08 14:21:51;;;;;;;9.30;7.05;;;;;;;;;;4824935;29;20508;-82
2023/04/08 14:24:36;;;;;;;17.58;9.25;;;;;;;;;;4788614;30;20051;-79
2023/04/08 14:27:22;;;;;;;12.48;7.18;;;;;;;;;;4774985;30;20122;-81
2023/04/08 14:30:07;;;;;;;12.63;6.82;;;;;;;;;;4788496;30;20071;-82
2023/04/08 14:32:53;;;;;;;10.68;6.43;;;;;;;;;;4800711;29;20050;-80
2023/04/08 14:35:39;;;;;;;10.40;6.88;;;;;;;;;;4806216;29;20054;-83
2023/04/08 14:38:25;;;;;;;9.07;5.72;;;;;;;;;;4811129;29;20051;-80
2023/04/08 14:41:10;;;;;;;9.18;5.93;;;;;;;;;;4806460;29;20048;-81
2023/04/08 14:43:55;;;;;;;10.75;6.53;;;;;;;;;;4806383;29;20055;-81
2023/04/08 14:46:39;;;;;;;8.48;5.68;;;;;;;;;;4806394;29;20054;-81
2023/04/08 14:49:24;;;;;;;12.27;7.03;;;;;;;;;;4791840;29;20055;-80
2023/04/08 14:52:10;;;;;;;12.13;6.68;;;;;;;;;;4799062;29;20050;-81
2023/04/08 14:54:56;;;;;;;8.82;6.05;;;;;;;;;;4805123;29;20051;-83
2023/04/08 14:57:41;;;;;;;11.07;6.53;;;;;;;;;;4798917;29;20063;-82
2023/04/08 15:00:27;;;;;;;11.35;6.32;;;;;;;;;;4805772;29;20058;-80
2023/04/08 15:03:13;;;;;;;10.13;6.82;;;;;;;;;;4824141;29;20062;-80
2023/04/08 15:05:58;;;;;;;17.10;10.88;;;;;;;;;;4824164;29;20046;-82
2023/04/08 15:08:44;;;;;;;15.65;7.97;;;;;;;;;;4824214;29;20050;-84
2023/04/08 15:11:29;;;;;;;9.77;6.20;;;;;;;;;;4800931;29;20044;-80
2023/04/08 15:14:14;;;;;;;9.80;6.47;;;;;;;;;;4788028;30;20478;-81
2023/04/08 15:16:59;;;;;;;10.55;6.03;;;;;;;;;;4790872;29;20052;-82
2023/04/08 15:19:45;;;;;;;9.98;6.32;;;;;;;;;;4809004;29;20416;-84
2023/04/08 15:22:31;;;;;;;13.20;8.38;;;;;;;;;;4809711;29;20054;-81
2023/04/08 15:25:16;;;;;;;21.00;11.13;;;;;;;;;;4802693;29;20480;-81
2023/04/08 15:28:02;;;;;;;15.18;9.55;;;;;;;;;;4809241;29;20405;-82
2023/04/08 15:30:50;;;;;;;34.50;19.20;;;;;;;;;;4791175;30;20129;-81
2023/04/08 15:33:40;;;;;;;89.43;43.10;;;;;;;;;;4791111;30;20489;-82
2023/04/08 15:36:26;;;;;;;77.68;35.83;;;;;;;;;;4824103;29;20509;-81
2023/04/08 15:39:11;;;;;;;76.72;38.20;;;;;;;;;;4795432;29;20409;-80
2023/04/08 15:41:56;;;;;;;35.28;17.70;;;;;;;;;;4809452;29;20055;-81
2023/04/08 15:44:41;;;;;;;35.70;17.73;;;;;;;;;;4795489;29;20050;-81
2023/04/08 15:47:27;;;;;;;91.40;53.20;;;;;;;;;;4808095;29;20051;-80
2023/04/08 15:50:13;;;;;;;44.83;21.08;;;;;;;;;;4808844;29;20043;-82
2023/04/08 15:52:59;;;;;;;61.30;26.42;;;;;;;;;;4808912;29;20485;-82
2023/04/08 15:55:44;;;;;;;52.25;20.55;;;;;;;;;;4808751;29;20063;-81
2023/04/08 15:58:30;;;;;;;40.03;16.80;;;;;;;;;;4801152;29;20059;-81
2023/04/08 16:01:17;;;;;;;21.45;13.88;;;;;;;;;;4795374;29;20473;-81
2023/04/08 16:04:02;;;;;;;35.50;20.50;;;;;;;;;;4809176;29;20054;-79
2023/04/08 16:06:46;;;;;;;47.90;17.05;;;;;;;;;;4808681;29;20059;-81
2023/04/08 16:09:31;;;;;;;20.45;11.35;;;;;;;;;;4808493;29;20055;-84
2023/04/08 16:12:18;;;;;;;28.45;14.27;;;;;;;;;;4808989;29;20051;-81